sensor_id;sensor_type;location;lat;lon;timestamp;P1;durP1;ratioP1;P2;durP2;ratioP2
8102;SDS011;4094;49.948;11.574;2023-04-15T00:01:18;9.77;;;9.20;;
8102;SDS011;4094;49.948;11.574;2023-04-15T00:03:49;9.53;;;9.03;;
8102;SDS011;4094;49.948;11.574;2023-04-15T00:06:20;9.47;;;8.87;;
8102;SDS011;4094;49.948;11.574;2023-04-15T00:08:50;10.00;;;9.40;;
8102;SDS011;4094;49.948;11.574;2023-04-15T00:11:19;9.90;;;9.20;;
8102;SDS011;4094;49.948;11.574;2023-04-15T00:13:48;9.93;;;9.27;;
8102;SDS011;4094;49.948;11.574;2023-04-15T00:16:18;9.23;;;8.73;;
8102;SDS011;4094;49.948;11.574;2023-04-15T00:18:49;9.93;;;9.33;;
8102;SDS011;4094;49.948;11.574;2023-04-15T00:21:18;9.67;;;9.17;;
8102;SDS011;4094;49.948;11.574;2023-04-15T00:23:47;9.77;;;9.20;;
8102;SDS011;4094;49.948;11.574;2023-04-15T00:26:20;10.17;;;9.27;;
8102;SDS011;4094;49.948;11.574;2023-04-15T00:28:50;10.17;;;9.57;;
8102;SDS011;4094;49.948;11.574;2023-04-15T00:31:19;8.83;;;8.27;;
8102;SDS011;4094;49.948;11.574;2023-04-15T00:33:49;9.40;;;8.70;;
8102;SDS011;4094;49.948;11.574;2023-04-15T00:36:19;9.40;;;8.80;;
8102;SDS011;4094;49.948;11.574;2023-04-15T00:38:50;9.33;;;8.73;;
8102;SDS011;4094;49.948;11.574;2023-04-15T00:41:19;9.40;;;8.90;;
8102;SDS011;4094;49.948;11.574;2023-04-15T00:43:49;10.07;;;9.37;;
8102;SDS011;4094;49.948;11.574;2023-04-15T00:46:18;9.43;;;8.87;;
8102;SDS011;4094;49.948;11.574;2023-04-15T00:48:50;9.70;;;9.10;;
8102;SDS011;4094;49.948;11.574;2023-04-15T00:51:19;9.90;;;9.30;;
8102;SDS011;4094;49.948;11.574;2023-04-15T00:53:48;10.10;;;9.37;;
8102;SDS011;4094;49.948;11.574;2023-04-15T00:56:18;9.57;;;9.07;;
8102;SDS011;4094;49.948;11.574;2023-04-15T00:58:50;9.30;;;8.80;;
8102;SDS011;4094;49.948;11.574;2023-04-15T01:01:20;9.93;;;9.33;;
8102;SDS011;4094;49.948;11.574;2023-04-15T01:03:51;9.00;;;8.47;;
8102;SDS011;4094;49.948;11.574;2023-04-15T01:06:20;9.57;;;9.07;;
8102;SDS011;4094;49.948;11.574;2023-04-15T01:08:50;10.20;;;9.50;;
8102;SDS011;4094;49.948;11.574;2023-04-15T01:11:19;9.80;;;9.30;;
8102;SDS011;4094;49.948;11.574;2023-04-15T01:13:49;9.70;;;9.10;;
8102;SDS011;4094;49.948;11.574;2023-04-15T01:16:19;9.50;;;9.00;;
8102;SDS011;4094;49.948;11.574;2023-04-15T01:18:48;9.43;;;8.80;;
8102;SDS011;4094;49.948;11.574;2023-04-15T01:21:19;9.73;;;9.13;;
8102;SDS011;4094;49.948;11.574;2023-04-15T01:23:51;9.63;;;9.13;;
8102;SDS011;4094;49.948;11.574;2023-04-15T01:26:24;10.67;;;9.97;;
8102;SDS011;4094;49.948;11.574;2023-04-15T01:28:54;9.93;;;9.33;;
8102;SDS011;4094;49.948;11.574;2023-04-15T01:31:24;9.47;;;8.90;;
8102;SDS011;4094;49.948;11.574;2023-04-15T01:33:54;10.13;;;9.43;;
8102;SDS011;4094;49.948;11.574;2023-04-15T01:36:42;10.00;;;9.30;;
8102;SDS011;4094;49.948;11.574;2023-04-15T01:39:11;10.17;;;9.60;;
8102;SDS011;4094;49.948;11.574;2023-04-15T01:41:41;9.63;;;9.03;;
8102;SDS011;4094;49.948;11.574;2023-04-15T01:44:12;10.43;;;9.73;;
8102;SDS011;4094;49.948;11.574;2023-04-15T01:46:43;10.03;;;9.43;;
8102;SDS011;4094;49.948;11.574;2023-04-15T01:49:14;10.43;;;9.73;;
8102;SDS011;4094;49.948;11.574;2023-04-15T01:51:45;9.80;;;9.20;;
8102;SDS011;4094;49.948;11.574;2023-04-15T01:54:15;9.63;;;9.10;;
8102;SDS011;4094;49.948;11.574;2023-04-15T01:56:47;10.33;;;9.53;;
8102;SDS011;4094;49.948;11.574;2023-04-15T01:59:18;10.00;;;9.40;;
8102;SDS011;4094;49.948;11.574;2023-04-15T02:01:48;9.87;;;9.27;;
8102;SDS011;4094;49.948;11.574;2023-04-15T02:04:20;10.33;;;9.63;;
8102;SDS011;4094;49.948;11.574;2023-04-15T02:06:51;10.27;;;9.67;;
8102;SDS011;4094;49.948;11.574;2023-04-15T02:09:22;10.73;;;10.03;;
8102;SDS011;4094;49.948;11.574;2023-04-15T02:11:54;10.97;;;10.17;;
8102;SDS011;4094;49.948;11.574;2023-04-15T02:14:25;10.57;;;9.97;;
8102;SDS011;4094;49.948;11.574;2023-04-15T02:16:55;10.40;;;9.70;;
8102;SDS011;4094;49.948;11.574;2023-04-15T02:19:30;10.77;;;10.07;;
8102;SDS011;4094;49.948;11.574;2023-04-15T02:22:00;10.43;;;9.83;;
8102;SDS011;4094;49.948;11.574;2023-04-15T02:24:30;10.20;;;9.60;;
8102;SDS011;4094;49.948;11.574;2023-04-15T02:27:03;10.23;;;9.63;;
8102;SDS011;4094;49.948;11.574;2023-04-15T02:29:33;10.50;;;9.90;;
8102;SDS011;4094;49.948;11.574;2023-04-15T02:32:04;10.77;;;10.07;;
8102;SDS011;4094;49.948;11.574;2023-04-15T02:34:35;10.70;;;10.10;;
8102;SDS011;4094;49.948;11.574;2023-04-15T02:37:10;10.63;;;9.93;;
8102;SDS011;4094;49.948;11.574;2023-04-15T02:39:41;10.60;;;9.90;;
8102;SDS011;4094;49.948;11.574;2023-04-15T02:42:13;10.87;;;10.17;;
8102;SDS011;4094;49.948;11.574;2023-04-15T02:44:43;10.87;;;10.17;;
8102;SDS011;4094;49.948;11.574;2023-04-15T02:47:14;9.93;;;9.33;;
8102;SDS011;4094;49.948;11.574;2023-04-15T02:49:44;11.00;;;10.10;;
8102;SDS011;4094;49.948;11.574;2023-04-15T02:52:15;10.20;;;9.60;;
8102;SDS011;4094;49.948;11.574;2023-04-15T02:54:45;10.33;;;9.73;;
8102;SDS011;4094;49.948;11.574;2023-04-15T02:57:17;10.40;;;9.73;;
8102;SDS011;4094;49.948;11.574;2023-04-15T02:59:47;10.97;;;10.33;;
8102;SDS011;4094;49.948;11.574;2023-04-15T03:02:18;10.80;;;10.10;;
8102;SDS011;4094;49.948;11.574;2023-04-15T03:04:49;10.97;;;10.33;;
8102;SDS011;4094;49.948;11.574;2023-04-15T03:07:20;11.00;;;10.40;;
8102;SDS011;4094;49.948;11.574;2023-04-15T03:09:51;10.47;;;9.87;;
8102;SDS011;4094;49.948;11.574;2023-04-15T03:12:23;10.70;;;9.87;;
8102;SDS011;4094;49.948;11.574;2023-04-15T03:14:57;10.60;;;9.90;;
8102;SDS011;4094;49.948;11.574;2023-04-15T03:17:35;10.93;;;10.23;;
8102;SDS011;4094;49.948;11.574;2023-04-15T03:20:07;10.90;;;10.10;;
8102;SDS011;4094;49.948;11.574;2023-04-15T03:22:38;10.20;;;9.50;;
8102;SDS011;4094;49.948;11.574;2023-04-15T03:25:09;10.67;;;9.97;;
8102;SDS011;4094;49.948;11.574;2023-04-15T03:27:41;10.97;;;10.13;;
8102;SDS011;4094;49.948;11.574;2023-04-15T03:30:14;10.53;;;9.93;;
8102;SDS011;4094;49.948;11.574;2023-04-15T03:32:44;10.77;;;10.07;;
8102;SDS011;4094;49.948;11.574;2023-04-15T03:35:15;10.50;;;9.80;;
8102;SDS011;4094;49.948;11.574;2023-04-15T03:37:46;10.87;;;10.17;;
8102;SDS011;4094;49.948;11.574;2023-04-15T03:40:17;10.90;;;10.20;;
8102;SDS011;4094;49.948;11.574;2023-04-15T03:42:49;10.90;;;10.20;;
8102;SDS011;4094;49.948;11.574;2023-04-15T03:45:19;10.27;;;9.67;;
8102;SDS011;4094;49.948;11.574;2023-04-15T03:47:50;10.30;;;9.67;;
8102;SDS011;4094;49.948;11.574;2023-04-15T03:50:21;10.77;;;10.00;;
8102;SDS011;4094;49.948;11.574;2023-04-15T03:52:51;11.27;;;10.47;;
8102;SDS011;4094;49.948;11.574;2023-04-15T03:55:22;10.47;;;9.87;;
8102;SDS011;4094;49.948;11.574;2023-04-15T03:57:54;10.23;;;9.63;;
8102;SDS011;4094;49.948;11.574;2023-04-15T04:00:25;10.20;;;9.60;;
8102;SDS011;4094;49.948;11.574;2023-04-15T04:02:56;10.60;;;9.90;;
8102;SDS011;4094;49.948;11.574;2023-04-15T04:05:27;11.07;;;10.37;;
8102;SDS011;4094;49.948;11.574;2023-04-15T04:07:57;10.87;;;10.17;;
8102;SDS011;4094;49.948;11.574;2023-04-15T04:10:28;9.97;;;9.37;;
8102;SDS011;4094;49.948;11.574;2023-04-15T04:13:01;10.63;;;10.03;;
8102;SDS011;4094;49.948;11.574;2023-04-15T04:15:31;11.47;;;10.57;;
8102;SDS011;4094;49.948;11.574;2023-04-15T04:18:02;11.27;;;10.53;;
8102;SDS011;4094;49.948;11.574;2023-04-15T04:20:32;11.30;;;10.50;;
8102;SDS011;4094;49.948;11.574;2023-04-15T04:23:03;10.70;;;10.00;;
8102;SDS011;4094;49.948;11.574;2023-04-15T04:25:34;11.30;;;10.50;;
8102;SDS011;4094;49.948;11.574;2023-04-15T04:28:06;11.57;;;10.80;;
8102;SDS011;4094;49.948;11.574;2023-04-15T04:30:37;11.03;;;10.40;;
8102;SDS011;4094;49.948;11.574;2023-04-15T04:33:08;11.47;;;10.77;;
8102;SDS011;4094;49.948;11.574;2023-04-15T04:35:38;10.97;;;10.27;;
8102;SDS011;4094;49.948;11.574;2023-04-15T04:38:09;11.10;;;10.50;;
8102;SDS011;4094;49.948;11.574;2023-04-15T04:40:39;10.80;;;10.20;;
8102;SDS011;4094;49.948;11.574;2023-04-15T04:43:11;11.10;;;10.30;;
8102;SDS011;4094;49.948;11.574;2023-04-15T04:45:42;10.10;;;9.50;;
8102;SDS011;4094;49.948;11.574;2023-04-15T04:48:13;10.53;;;9.90;;
8102;SDS011;4094;49.948;11.574;2023-04-15T04:50:44;11.07;;;10.40;;
8102;SDS011;4094;49.948;11.574;2023-04-15T04:53:15;10.80;;;10.20;;
8102;SDS011;4094;49.948;11.574;2023-04-15T04:55:46;11.30;;;10.50;;
8102;SDS011;4094;49.948;11.574;2023-04-15T04:58:18;11.23;;;10.47;;
8102;SDS011;4094;49.948;11.574;2023-04-15T05:00:49;10.43;;;9.70;;
8102;SDS011;4094;49.948;11.574;2023-04-15T05:03:20;10.60;;;10.00;;
8102;SDS011;4094;49.948;11.574;2023-04-15T05:05:51;11.07;;;10.37;;
8102;SDS011;4094;49.948;11.574;2023-04-15T05:08:21;10.90;;;10.10;;
8102;SDS011;4094;49.948;11.574;2023-04-15T05:10:51;10.73;;;9.93;;
8102;SDS011;4094;49.948;11.574;2023-04-15T05:13:23;10.63;;;10.00;;
8102;SDS011;4094;49.948;11.574;2023-04-15T05:15:54;10.50;;;9.90;;
8102;SDS011;4094;49.948;11.574;2023-04-15T05:18:25;10.80;;;10.10;;
8102;SDS011;4094;49.948;11.574;2023-04-15T05:20:55;10.27;;;9.57;;
8102;SDS011;4094;49.948;11.574;2023-04-15T05:23:26;10.27;;;9.57;;
8102;SDS011;4094;49.948;11.574;2023-04-15T05:26:00;11.10;;;10.20;;
8102;SDS011;4094;49.948;11.574;2023-04-15T05:28:31;10.77;;;10.07;;
8102;SDS011;4094;49.948;11.574;2023-04-15T05:31:02;10.53;;;9.90;;
8102;SDS011;4094;49.948;11.574;2023-04-15T05:33:33;10.40;;;9.80;;
8102;SDS011;4094;49.948;11.574;2023-04-15T05:36:04;10.53;;;9.93;;
8102;SDS011;4094;49.948;11.574;2023-04-15T05:38:35;10.63;;;9.93;;
8102;SDS011;4094;49.948;11.574;2023-04-15T05:41:05;10.90;;;10.20;;
8102;SDS011;4094;49.948;11.574;2023-04-15T05:43:37;10.83;;;10.23;;
8102;SDS011;4094;49.948;11.574;2023-04-15T05:46:08;10.43;;;9.80;;
8102;SDS011;4094;49.948;11.574;2023-04-15T05:48:39;10.37;;;9.77;;
8102;SDS011;4094;49.948;11.574;2023-04-15T05:51:09;10.67;;;9.97;;
8102;SDS011;4094;49.948;11.574;2023-04-15T05:53:40;10.53;;;9.83;;
8102;SDS011;4094;49.948;11.574;2023-04-15T05:56:10;10.97;;;10.30;;
8102;SDS011;4094;49.948;11.574;2023-04-15T05:58:42;10.83;;;10.23;;
8102;SDS011;4094;49.948;11.574;2023-04-15T06:01:13;10.87;;;10.20;;
8102;SDS011;4094;49.948;11.574;2023-04-15T06:03:44;11.30;;;10.50;;
8102;SDS011;4094;49.948;11.574;2023-04-15T06:06:14;11.13;;;10.43;;
8102;SDS011;4094;49.948;11.574;2023-04-15T06:08:45;10.37;;;9.77;;
8102;SDS011;4094;49.948;11.574;2023-04-15T06:11:15;10.83;;;10.17;;
8102;SDS011;4094;49.948;11.574;2023-04-15T06:13:47;10.77;;;10.07;;
8102;SDS011;4094;49.948;11.574;2023-04-15T06:16:18;10.80;;;10.20;;
8102;SDS011;4094;49.948;11.574;2023-04-15T06:18:48;10.90;;;10.30;;
8102;SDS011;4094;49.948;11.574;2023-04-15T06:21:18;11.83;;;11.13;;
8102;SDS011;4094;49.948;11.574;2023-04-15T06:23:49;11.33;;;10.63;;
8102;SDS011;4094;49.948;11.574;2023-04-15T06:26:20;11.23;;;10.53;;
8102;SDS011;4094;49.948;11.574;2023-04-15T06:28:51;11.13;;;10.43;;
8102;SDS011;4094;49.948;11.574;2023-04-15T06:31:22;10.77;;;10.17;;
8102;SDS011;4094;49.948;11.574;2023-04-15T06:33:53;11.60;;;10.90;;
8102;SDS011;4094;49.948;11.574;2023-04-15T06:36:23;11.40;;;10.67;;
8102;SDS011;4094;49.948;11.574;2023-04-15T06:38:53;10.90;;;10.30;;
8102;SDS011;4094;49.948;11.574;2023-04-15T06:41:24;11.10;;;10.40;;
8102;SDS011;4094;49.948;11.574;2023-04-15T06:43:56;11.37;;;10.67;;
8102;SDS011;4094;49.948;11.574;2023-04-15T06:46:26;10.63;;;10.03;;
8102;SDS011;4094;49.948;11.574;2023-04-15T06:48:56;11.50;;;10.77;;
8102;SDS011;4094;49.948;11.574;2023-04-15T06:51:27;11.50;;;10.77;;
8102;SDS011;4094;49.948;11.574;2023-04-15T06:53:57;11.70;;;10.80;;
8102;SDS011;4094;49.948;11.574;2023-04-15T06:56:28;10.70;;;9.93;;
8102;SDS011;4094;49.948;11.574;2023-04-15T06:58:59;10.20;;;9.60;;
8102;SDS011;4094;49.948;11.574;2023-04-15T07:01:30;10.97;;;10.30;;
8102;SDS011;4094;49.948;11.574;2023-04-15T07:04:01;10.60;;;9.90;;
8102;SDS011;4094;49.948;11.574;2023-04-15T07:06:31;11.30;;;10.70;;
8102;SDS011;4094;49.948;11.574;2023-04-15T07:09:03;11.67;;;10.77;;
8102;SDS011;4094;49.948;11.574;2023-04-15T07:11:34;11.07;;;10.30;;
8102;SDS011;4094;49.948;11.574;2023-04-15T07:14:06;10.63;;;10.03;;
8102;SDS011;4094;49.948;11.574;2023-04-15T07:16:36;11.00;;;10.30;;
8102;SDS011;4094;49.948;11.574;2023-04-15T07:19:07;11.00;;;10.40;;
8102;SDS011;4094;49.948;11.574;2023-04-15T07:21:37;10.53;;;9.93;;
8102;SDS011;4094;49.948;11.574;2023-04-15T07:24:09;10.50;;;9.90;;
8102;SDS011;4094;49.948;11.574;2023-04-15T07:26:40;10.10;;;9.50;;
8102;SDS011;4094;49.948;11.574;2023-04-15T07:29:12;10.03;;;9.43;;
8102;SDS011;4094;49.948;11.574;2023-04-15T07:31:43;9.93;;;9.33;;
8102;SDS011;4094;49.948;11.574;2023-04-15T07:34:14;10.40;;;9.80;;
8102;SDS011;4094;49.948;11.574;2023-04-15T07:36:45;10.20;;;9.60;;
8102;SDS011;4094;49.948;11.574;2023-04-15T07:39:18;9.77;;;9.27;;
8102;SDS011;4094;49.948;11.574;2023-04-15T07:41:49;9.77;;;9.17;;
8102;SDS011;4094;49.948;11.574;2023-04-15T07:44:20;9.40;;;8.83;;
8102;SDS011;4094;49.948;11.574;2023-04-15T07:46:51;10.00;;;9.40;;
8102;SDS011;4094;49.948;11.574;2023-04-15T07:49:22;9.83;;;9.27;;
8102;SDS011;4094;49.948;11.574;2023-04-15T07:51:52;10.80;;;10.00;;
8102;SDS011;4094;49.948;11.574;2023-04-15T07:54:25;10.47;;;9.87;;
8102;SDS011;4094;49.948;11.574;2023-04-15T07:56:56;10.33;;;9.67;;
8102;SDS011;4094;49.948;11.574;2023-04-15T07:59:28;10.20;;;9.60;;
8102;SDS011;4094;49.948;11.574;2023-04-15T08:02:01;10.03;;;9.43;;
8102;SDS011;4094;49.948;11.574;2023-04-15T08:04:31;10.43;;;9.63;;
8102;SDS011;4094;49.948;11.574;2023-04-15T08:07:02;10.03;;;9.43;;
8102;SDS011;4094;49.948;11.574;2023-04-15T08:09:33;10.17;;;9.67;;
8102;SDS011;4094;49.948;11.574;2023-04-15T08:12:04;10.10;;;9.50;;
8102;SDS011;4094;49.948;11.574;2023-04-15T08:14:38;9.57;;;9.07;;
8102;SDS011;4094;49.948;11.574;2023-04-15T08:17:09;9.73;;;9.13;;
8102;SDS011;4094;49.948;11.574;2023-04-15T08:19:39;9.70;;;9.20;;
8102;SDS011;4094;49.948;11.574;2023-04-15T08:22:11;9.23;;;8.73;;
8102;SDS011;4094;49.948;11.574;2023-04-15T08:24:46;9.80;;;9.30;;
8102;SDS011;4094;49.948;11.574;2023-04-15T08:27:16;10.20;;;9.60;;
8102;SDS011;4094;49.948;11.574;2023-04-15T08:29:48;9.83;;;9.23;;
8102;SDS011;4094;49.948;11.574;2023-04-15T08:32:19;10.20;;;9.60;;
8102;SDS011;4094;49.948;11.574;2023-04-15T08:34:50;9.60;;;9.00;;
8102;SDS011;4094;49.948;11.574;2023-04-15T08:37:21;9.93;;;9.33;;
8102;SDS011;4094;49.948;11.574;2023-04-15T08:39:51;10.07;;;9.57;;
8102;SDS011;4094;49.948;11.574;2023-04-15T08:42:22;9.77;;;9.17;;
8102;SDS011;4094;49.948;11.574;2023-04-15T08:45:01;9.47;;;8.97;;
8102;SDS011;4094;49.948;11.574;2023-04-15T08:47:33;10.07;;;9.47;;
8102;SDS011;4094;49.948;11.574;2023-04-15T08:50:07;9.73;;;9.20;;
8102;SDS011;4094;49.948;11.574;2023-04-15T08:52:39;10.17;;;9.57;;
8102;SDS011;4094;49.948;11.574;2023-04-15T08:55:10;9.10;;;8.37;;
8102;SDS011;4094;49.948;11.574;2023-04-15T08:57:42;10.17;;;9.67;;
8102;SDS011;4094;49.948;11.574;2023-04-15T09:00:14;10.37;;;9.77;;
8102;SDS011;4094;49.948;11.574;2023-04-15T09:02:46;10.47;;;9.77;;
8102;SDS011;4094;49.948;11.574;2023-04-15T09:05:17;10.43;;;9.73;;
8102;SDS011;4094;49.948;11.574;2023-04-15T09:07:49;10.40;;;9.70;;
8102;SDS011;4094;49.948;11.574;2023-04-15T09:10:20;10.03;;;9.43;;
8102;SDS011;4094;49.948;11.574;2023-04-15T09:13:03;10.30;;;9.70;;
8102;SDS011;4094;49.948;11.574;2023-04-15T09:15:36;9.77;;;9.17;;
8102;SDS011;4094;49.948;11.574;2023-04-15T09:18:08;9.67;;;9.17;;
8102;SDS011;4094;49.948;11.574;2023-04-15T09:20:40;9.60;;;9.00;;
8102;SDS011;4094;49.948;11.574;2023-04-15T09:23:11;10.20;;;9.50;;
8102;SDS011;4094;49.948;11.574;2023-04-15T09:25:43;10.10;;;9.50;;
8102;SDS011;4094;49.948;11.574;2023-04-15T09:28:14;10.13;;;9.60;;
8102;SDS011;4094;49.948;11.574;2023-04-15T09:30:55;9.33;;;8.73;;
8102;SDS011;4094;49.948;11.574;2023-04-15T09:33:27;9.63;;;9.13;;
8102;SDS011;4094;49.948;11.574;2023-04-15T09:35:59;9.97;;;9.37;;
8102;SDS011;4094;49.948;11.574;2023-04-15T09:38:31;10.30;;;9.60;;
8102;SDS011;4094;49.948;11.574;2023-04-15T09:41:01;10.20;;;9.60;;
8102;SDS011;4094;49.948;11.574;2023-04-15T09:43:39;10.40;;;9.80;;
8102;SDS011;4094;49.948;11.574;2023-04-15T09:46:11;10.67;;;9.97;;
8102;SDS011;4094;49.948;11.574;2023-04-15T09:48:42;10.40;;;9.80;;
8102;SDS011;4094;49.948;11.574;2023-04-15T09:51:12;9.13;;;8.60;;
8102;SDS011;4094;49.948;11.574;2023-04-15T09:53:43;10.13;;;9.53;;
8102;SDS011;4094;49.948;11.574;2023-04-15T09:56:14;10.90;;;10.20;;
8102;SDS011;4094;49.948;11.574;2023-04-15T09:58:45;10.23;;;9.63;;
8102;SDS011;4094;49.948;11.574;2023-04-15T10:01:26;10.37;;;9.77;;
8102;SDS011;4094;49.948;11.574;2023-04-15T10:03:57;9.90;;;9.40;;
8102;SDS011;4094;49.948;11.574;2023-04-15T10:06:32;10.27;;;9.67;;
8102;SDS011;4094;49.948;11.574;2023-04-15T10:09:03;10.43;;;9.63;;
8102;SDS011;4094;49.948;11.574;2023-04-15T10:11:36;10.73;;;10.13;;
8102;SDS011;4094;49.948;11.574;2023-04-15T10:14:07;10.47;;;9.87;;
8102;SDS011;4094;49.948;11.574;2023-04-15T10:16:40;10.30;;;9.70;;
8102;SDS011;4094;49.948;11.574;2023-04-15T10:19:13;10.10;;;9.60;;
8102;SDS011;4094;49.948;11.574;2023-04-15T10:21:47;9.73;;;9.10;;
8102;SDS011;4094;49.948;11.574;2023-04-15T10:24:19;9.77;;;9.20;;
8102;SDS011;4094;49.948;11.574;2023-04-15T10:26:51;9.60;;;9.10;;
8102;SDS011;4094;49.948;11.574;2023-04-15T10:29:22;9.93;;;9.33;;
8102;SDS011;4094;49.948;11.574;2023-04-15T10:31:56;9.23;;;8.73;;
8102;SDS011;4094;49.948;11.574;2023-04-15T10:34:29;9.60;;;9.03;;
8102;SDS011;4094;49.948;11.574;2023-04-15T10:37:01;9.10;;;8.50;;
8102;SDS011;4094;49.948;11.574;2023-04-15T10:39:39;8.87;;;8.37;;
8102;SDS011;4094;49.948;11.574;2023-04-15T10:42:12;9.43;;;8.83;;
8102;SDS011;4094;49.948;11.574;2023-04-15T10:44:44;9.27;;;8.77;;
8102;SDS011;4094;49.948;11.574;2023-04-15T10:47:20;8.77;;;8.27;;
8102;SDS011;4094;49.948;11.574;2023-04-15T10:49:54;8.73;;;8.23;;
8102;SDS011;4094;49.948;11.574;2023-04-15T10:52:27;9.50;;;8.87;;
8102;SDS011;4094;49.948;11.574;2023-04-15T10:55:01;8.70;;;8.20;;
8102;SDS011;4094;49.948;11.574;2023-04-15T10:57:34;8.60;;;8.20;;
8102;SDS011;4094;49.948;11.574;2023-04-15T11:00:10;9.07;;;8.57;;
8102;SDS011;4094;49.948;11.574;2023-04-15T11:02:45;9.30;;;8.77;;
8102;SDS011;4094;49.948;11.574;2023-04-15T11:05:18;8.57;;;8.17;;
8102;SDS011;4094;49.948;11.574;2023-04-15T11:07:50;8.80;;;8.40;;
8102;SDS011;4094;49.948;11.574;2023-04-15T11:13:23;8.47;;;8.07;;
8102;SDS011;4094;49.948;11.574;2023-04-15T11:15:56;8.60;;;8.20;;
8102;SDS011;4094;49.948;11.574;2023-04-15T11:18:31;8.93;;;8.40;;
8102;SDS011;4094;49.948;11.574;2023-04-15T11:21:04;8.80;;;8.30;;
8102;SDS011;4094;49.948;11.574;2023-04-15T11:23:36;8.93;;;8.43;;
8102;SDS011;4094;49.948;11.574;2023-04-15T11:26:08;9.23;;;8.63;;
8102;SDS011;4094;49.948;11.574;2023-04-15T11:28:40;9.07;;;8.57;;
8102;SDS011;4094;49.948;11.574;2023-04-15T11:31:13;9.07;;;8.47;;
8102;SDS011;4094;49.948;11.574;2023-04-15T11:33:52;8.90;;;8.30;;
8102;SDS011;4094;49.948;11.574;2023-04-15T11:36:24;8.47;;;8.07;;
8102;SDS011;4094;49.948;11.574;2023-04-15T11:38:56;8.60;;;8.00;;
8102;SDS011;4094;49.948;11.574;2023-04-15T11:41:28;8.20;;;7.80;;
8102;SDS011;4094;49.948;11.574;2023-04-15T11:43:58;8.03;;;7.53;;
8102;SDS011;4094;49.948;11.574;2023-04-15T11:46:29;8.57;;;8.07;;
8102;SDS011;4094;49.948;11.574;2023-04-15T11:49:01;8.73;;;8.27;;
8102;SDS011;4094;49.948;11.574;2023-04-15T11:51:32;8.57;;;8.07;;
8102;SDS011;4094;49.948;11.574;2023-04-15T11:54:02;7.97;;;7.47;;
8102;SDS011;4094;49.948;11.574;2023-04-15T11:56:32;8.60;;;8.10;;
8102;SDS011;4094;49.948;11.574;2023-04-15T11:59:01;8.23;;;7.83;;
8102;SDS011;4094;49.948;11.574;2023-04-15T12:01:31;8.37;;;7.97;;
8102;SDS011;4094;49.948;11.574;2023-04-15T12:04:04;8.30;;;7.90;;
8102;SDS011;4094;49.948;11.574;2023-04-15T12:06:39;8.40;;;7.90;;
8102;SDS011;4094;49.948;11.574;2023-04-15T12:09:09;8.27;;;7.87;;
8102;SDS011;4094;49.948;11.574;2023-04-15T12:11:40;8.23;;;7.83;;
8102;SDS011;4094;49.948;11.574;2023-04-15T12:14:12;8.60;;;8.10;;
8102;SDS011;4094;49.948;11.574;2023-04-15T12:16:48;7.70;;;7.30;;
8102;SDS011;4094;49.948;11.574;2023-04-15T12:19:22;8.47;;;8.07;;
8102;SDS011;4094;49.948;11.574;2023-04-15T12:21:56;8.13;;;7.73;;
8102;SDS011;4094;49.948;11.574;2023-04-15T12:24:30;8.97;;;8.33;;
8102;SDS011;4094;49.948;11.574;2023-04-15T12:27:03;8.23;;;7.73;;
8102;SDS011;4094;49.948;11.574;2023-04-15T12:29:34;8.03;;;7.63;;
8102;SDS011;4094;49.948;11.574;2023-04-15T12:32:05;7.97;;;7.47;;
8102;SDS011;4094;49.948;11.574;2023-04-15T12:34:37;7.67;;;7.27;;
8102;SDS011;4094;49.948;11.574;2023-04-15T12:37:08;7.77;;;7.37;;
8102;SDS011;4094;49.948;11.574;2023-04-15T12:39:39;8.17;;;7.67;;
8102;SDS011;4094;49.948;11.574;2023-04-15T12:42:09;8.20;;;7.80;;
8102;SDS011;4094;49.948;11.574;2023-04-15T12:44:39;8.60;;;8.20;;
8102;SDS011;4094;49.948;11.574;2023-04-15T12:47:09;8.40;;;8.00;;
8102;SDS011;4094;49.948;11.574;2023-04-15T12:49:40;7.90;;;7.50;;
8102;SDS011;4094;49.948;11.574;2023-04-15T12:52:09;7.87;;;7.47;;
8102;SDS011;4094;49.948;11.574;2023-04-15T12:54:38;8.37;;;7.87;;
8102;SDS011;4094;49.948;11.574;2023-04-15T12:57:07;7.77;;;7.37;;
8102;SDS011;4094;49.948;11.574;2023-04-15T12:59:37;7.97;;;7.47;;
8102;SDS011;4094;49.948;11.574;2023-04-15T13:02:06;8.40;;;8.00;;
8102;SDS011;4094;49.948;11.574;2023-04-15T13:04:35;7.97;;;7.57;;
8102;SDS011;4094;49.948;11.574;2023-04-15T13:07:06;8.03;;;7.63;;
8102;SDS011;4094;49.948;11.574;2023-04-15T13:09:35;7.80;;;7.40;;
8102;SDS011;4094;49.948;11.574;2023-04-15T13:12:06;7.97;;;7.57;;
8102;SDS011;4094;49.948;11.574;2023-04-15T13:14:35;8.50;;;8.10;;
8102;SDS011;4094;49.948;11.574;2023-04-15T13:17:04;8.50;;;8.10;;
8102;SDS011;4094;49.948;11.574;2023-04-15T13:19:37;9.03;;;8.43;;
8102;SDS011;4094;49.948;11.574;2023-04-15T13:22:08;8.50;;;7.90;;
8102;SDS011;4094;49.948;11.574;2023-04-15T13:24:37;8.77;;;8.27;;
8102;SDS011;4094;49.948;11.574;2023-04-15T13:27:07;8.87;;;7.97;;
8102;SDS011;4094;49.948;11.574;2023-04-15T13:29:36;8.13;;;7.60;;
8102;SDS011;4094;49.948;11.574;2023-04-15T13:32:06;14.30;;;8.40;;
8102;SDS011;4094;49.948;11.574;2023-04-15T13:34:36;8.40;;;7.80;;
8102;SDS011;4094;49.948;11.574;2023-04-15T13:37:05;8.37;;;7.87;;
8102;SDS011;4094;49.948;11.574;2023-04-15T13:39:36;8.33;;;7.93;;
8102;SDS011;4094;49.948;11.574;2023-04-15T13:42:05;7.77;;;7.37;;
8102;SDS011;4094;49.948;11.574;2023-04-15T13:44:34;7.73;;;7.33;;
8102;SDS011;4094;49.948;11.574;2023-04-15T13:47:03;8.37;;;7.87;;
8102;SDS011;4094;49.948;11.574;2023-04-15T13:49:33;8.00;;;7.60;;
8102;SDS011;4094;49.948;11.574;2023-04-15T13:52:02;9.47;;;8.87;;
8102;SDS011;4094;49.948;11.574;2023-04-15T13:54:31;10.40;;;9.70;;
8102;SDS011;4094;49.948;11.574;2023-04-15T13:57:05;9.57;;;8.97;;
8102;SDS011;4094;49.948;11.574;2023-04-15T13:59:34;9.10;;;8.60;;
8102;SDS011;4094;49.948;11.574;2023-04-15T14:02:04;8.93;;;8.40;;
8102;SDS011;4094;49.948;11.574;2023-04-15T14:04:34;8.80;;;8.30;;
8102;SDS011;4094;49.948;11.574;2023-04-15T14:07:03;8.50;;;8.00;;
8102;SDS011;4094;49.948;11.574;2023-04-15T14:09:33;11.67;;;10.77;;
8102;SDS011;4094;49.948;11.574;2023-04-15T14:12:04;9.50;;;8.90;;
8102;SDS011;4094;49.948;11.574;2023-04-15T14:14:33;8.80;;;8.30;;
8102;SDS011;4094;49.948;11.574;2023-04-15T14:17:02;8.53;;;8.03;;
8102;SDS011;4094;49.948;11.574;2023-04-15T14:19:32;8.13;;;7.63;;
8102;SDS011;4094;49.948;11.574;2023-04-15T14:22:02;8.80;;;8.30;;
8102;SDS011;4094;49.948;11.574;2023-04-15T14:24:31;9.90;;;9.30;;
8102;SDS011;4094;49.948;11.574;2023-04-15T14:27:01;9.00;;;8.50;;
8102;SDS011;4094;49.948;11.574;2023-04-15T14:29:31;9.07;;;8.47;;
8102;SDS011;4094;49.948;11.574;2023-04-15T14:32:01;8.50;;;8.07;;
8102;SDS011;4094;49.948;11.574;2023-04-15T14:34:39;8.90;;;8.40;;
8102;SDS011;4094;49.948;11.574;2023-04-15T14:37:08;9.00;;;8.40;;
8102;SDS011;4094;49.948;11.574;2023-04-15T14:39:37;8.70;;;8.10;;
8102;SDS011;4094;49.948;11.574;2023-04-15T14:42:07;8.63;;;8.13;;
8102;SDS011;4094;49.948;11.574;2023-04-15T14:44:37;8.67;;;8.17;;
8102;SDS011;4094;49.948;11.574;2023-04-15T14:47:07;8.67;;;8.17;;
8102;SDS011;4094;49.948;11.574;2023-04-15T14:49:36;8.13;;;7.73;;
8102;SDS011;4094;49.948;11.574;2023-04-15T14:52:05;8.10;;;7.70;;
8102;SDS011;4094;49.948;11.574;2023-04-15T14:54:35;8.50;;;8.00;;
8102;SDS011;4094;49.948;11.574;2023-04-15T14:57:04;8.17;;;7.67;;
8102;SDS011;4094;49.948;11.574;2023-04-15T14:59:35;9.00;;;8.50;;
8102;SDS011;4094;49.948;11.574;2023-04-15T15:02:06;13.97;;;13.00;;
8102;SDS011;4094;49.948;11.574;2023-04-15T15:04:36;11.67;;;10.87;;
8102;SDS011;4094;49.948;11.574;2023-04-15T15:07:07;9.20;;;8.70;;
8102;SDS011;4094;49.948;11.574;2023-04-15T15:09:36;8.63;;;8.13;;
8102;SDS011;4094;49.948;11.574;2023-04-15T15:12:06;8.37;;;7.87;;
8102;SDS011;4094;49.948;11.574;2023-04-15T15:14:35;8.37;;;7.90;;
8102;SDS011;4094;49.948;11.574;2023-04-15T15:17:06;7.90;;;7.50;;